Time;durP1;ratioP1;P1;durP2;ratioP2;P2;SDS_P1;SDS_P2;PMS_P1;PMS_P2;Temp;Humidity;BMP_temperature;BMP_pressure;BME280_temperature;BME280_humidity;BME280_pressure;Samples;Min_cycle;Max_cycle;Signal;HPM_P1;HPM_P2
2023/01/29 00:01:43;;;;;;;13.15;8.45;;;4.50;99.90;;;;;;4671182;30;20089;-90
2023/01/29 00:04:28;;;;;;;16.63;10.80;;;4.50;99.90;;;;;;4677735;30;20049;-90
2023/01/29 00:07:05;;;;;;;17.10;10.98;;;4.50;99.90;;;;;;4675110;30;20509;-90
2023/01/29 00:09:37;;;;;;;17.83;10.88;;;4.50;99.90;;;;;;4665322;30;20047;-90
2023/01/29 00:12:08;;;;;;;15.05;10.20;;;4.50;99.90;;;;;;4669365;30;20046;-90
2023/01/29 00:14:40;;;;;;;15.85;10.68;;;4.50;99.90;;;;;;4680212;30;20074;-90
2023/01/29 00:17:09;;;;;;;16.02;11.68;;;4.50;99.90;;;;;;4670847;30;20411;-90
2023/01/29 00:19:43;;;;;;;16.67;11.00;;;4.40;99.90;;;;;;4679182;30;20038;-90
2023/01/29 00:22:09;;;;;;;17.60;11.80;;;4.50;99.90;;;;;;4679882;30;20081;-89
2023/01/29 00:24:37;;;;;;;17.20;10.93;;;4.40;99.90;;;;;;4666789;30;20480;-89
2023/01/29 00:27:03;;;;;;;18.08;11.30;;;4.40;99.90;;;;;;4670915;30;20150;-89
2023/01/29 00:29:31;;;;;;;15.13;10.68;;;4.40;99.90;;;;;;4679778;30;20240;-89
2023/01/29 00:31:59;;;;;;;16.40;9.98;;;4.50;99.90;;;;;;4669855;30;20089;-88
2023/01/29 00:34:24;;;;;;;19.02;12.32;;;4.50;99.90;;;;;;4695610;30;20478;-89
2023/01/29 00:36:50;;;;;;;19.33;11.57;;;4.50;99.90;;;;;;4674388;30;20081;-89
2023/01/29 00:39:16;;;;;;;17.48;10.98;;;4.40;99.90;;;;;;4680315;30;20049;-89
2023/01/29 00:50:11;;;;;;;16.75;12.02;;;4.50;99.90;;;;;;4666411;30;20101;-89
2023/01/29 00:52:39;;;;;;;20.83;12.55;;;4.40;99.90;;;;;;4678694;30;20058;-89
2023/01/29 00:55:06;;;;;;;17.20;11.48;;;4.40;99.90;;;;;;4666644;30;20069;-89
2023/01/29 00:57:33;;;;;;;15.73;11.13;;;4.50;99.90;;;;;;4693205;30;20062;-88
2023/01/29 01:00:00;;;;;;;20.55;13.13;;;4.50;99.90;;;;;;4678006;30;20116;-88
2023/01/29 01:05:16;;;;;;;16.77;11.85;;;4.50;99.90;;;;;;4677692;30;20057;-88
2023/01/29 01:07:50;;;;;;;18.15;12.20;;;4.50;99.90;;;;;;4674135;30;20054;-89
2023/01/29 01:10:34;;;;;;;19.33;12.00;;;4.50;99.90;;;;;;4681639;30;20131;-88
2023/01/29 01:13:05;;;;;;;22.77;13.13;;;4.50;99.90;;;;;;4665511;30;20042;-89
2023/01/29 01:15:35;;;;;;;17.45;12.02;;;4.50;99.90;;;;;;4681104;30;20397;-88
2023/01/29 01:18:02;;;;;;;19.77;14.10;;;4.50;99.90;;;;;;4673337;30;20077;-88
2023/01/29 01:20:31;;;;;;;22.35;14.80;;;4.50;99.90;;;;;;4669439;30;20048;-89
2023/01/29 01:22:57;;;;;;;19.88;13.52;;;4.50;99.90;;;;;;4660150;30;20128;-88
2023/01/29 01:25:25;;;;;;;21.23;13.43;;;4.40;99.90;;;;;;4664384;30;20101;-88
2023/01/29 01:27:55;;;;;;;17.77;12.25;;;4.50;99.90;;;;;;4720247;25;20571;-89
2023/01/29 01:30:22;;;;;;;20.60;12.52;;;4.50;99.90;;;;;;4682035;30;20054;-89
2023/01/29 01:32:48;;;;;;;16.77;12.40;;;4.50;99.90;;;;;;4673898;30;20101;-89
2023/01/29 01:35:14;;;;;;;21.85;15.00;;;4.50;99.90;;;;;;4684449;24;20049;-88
2023/01/29 01:37:40;;;;;;;23.92;15.20;;;4.50;99.90;;;;;;4688874;24;20056;-90
2023/01/29 01:40:18;;;;;;;23.40;15.52;;;4.50;99.90;;;;;;4667290;30;20054;-89
2023/01/29 01:42:51;;;;;;;18.52;13.32;;;4.50;99.90;;;;;;4682139;30;20514;-89
2023/01/29 01:45:20;;;;;;;18.98;12.32;;;4.50;99.90;;;;;;4695679;30;20192;-89
2023/01/29 01:48:22;;;;;;;19.75;13.25;;;4.40;99.90;;;;;;4681913;30;20050;-88
2023/01/29 01:51:05;;;;;;;17.35;11.57;;;4.50;99.90;;;;;;4668914;30;20050;-88
2023/01/29 01:53:45;;;;;;;18.60;12.32;;;4.50;99.90;;;;;;4666144;30;20061;-88
2023/01/29 01:56:15;;;;;;;19.20;14.07;;;4.50;99.90;;;;;;4694530;30;20050;-87
2023/01/29 01:58:49;;;;;;;24.60;13.30;;;4.50;99.90;;;;;;4666706;30;20058;-88
2023/01/29 02:01:16;;;;;;;19.35;12.52;;;4.50;99.90;;;;;;4666486;30;20053;-88
2023/01/29 02:10:11;;;;;;;22.58;13.70;;;4.50;99.90;;;;;;4672155;30;20499;-89
2023/01/29 02:12:37;;;;;;;18.58;12.15;;;4.40;99.90;;;;;;4682210;30;20108;-88
2023/01/29 02:15:04;;;;;;;20.95;14.60;;;4.40;99.90;;;;;;4666554;30;20041;-89
2023/01/29 02:17:30;;;;;;;20.38;13.60;;;4.40;99.90;;;;;;4669122;30;20053;-87
2023/01/29 02:20:23;;;;;;;22.55;15.45;;;4.50;99.90;;;;;;4681009;30;20522;-87
2023/01/29 02:23:10;;;;;;;21.77;13.82;;;4.50;99.90;;;;;;4666983;30;20825;-88
2023/01/29 02:25:57;;;;;;;18.80;13.32;;;4.50;99.90;;;;;;4666224;30;20144;-88
2023/01/29 02:29:21;;;;;;;17.90;13.07;;;4.50;99.90;;;;;;4665915;30;20053;-88
2023/01/29 02:31:55;;;;;;;20.27;13.80;;;4.50;99.90;;;;;;4666947;30;20054;-88
2023/01/29 02:37:35;;;;;;;20.30;13.38;;;4.50;99.90;;;;;;4665411;30;20058;-89
2023/01/29 02:40:37;;;;;;;18.58;13.55;;;4.50;99.90;;;;;;4682958;30;20085;-89
2023/01/29 02:43:26;;;;;;;22.48;13.88;;;4.40;99.90;;;;;;4660621;30;20058;-88
2023/01/29 02:45:55;;;;;;;20.13;13.18;;;4.40;99.90;;;;;;4666293;30;20056;-89
2023/01/29 02:48:24;;;;;;;20.77;14.43;;;4.40;99.90;;;;;;4694506;30;20480;-88
2023/01/29 02:51:05;;;;;;;18.23;13.02;;;4.50;99.90;;;;;;4680526;30;20565;-89
2023/01/29 02:53:45;;;;;;;18.63;12.23;;;4.50;99.90;;;;;;4694152;30;20054;-88
2023/01/29 02:56:16;;;;;;;21.52;14.07;;;4.50;99.90;;;;;;4673975;30;20053;-88
2023/01/29 02:59:02;;;;;;;21.15;14.32;;;4.50;99.90;;;;;;4686511;30;20064;-89
2023/01/29 03:01:50;;;;;;;21.88;14.23;;;4.50;99.90;;;;;;4671476;30;20061;-89
2023/01/29 03:04:26;;;;;;;18.58;13.07;;;4.50;99.90;;;;;;4668927;30;20061;-88
2023/01/29 03:07:01;;;;;;;20.33;13.88;;;4.50;99.90;;;;;;4683958;30;20053;-88
2023/01/29 03:09:48;;;;;;;18.60;12.90;;;4.50;99.90;;;;;;4684721;30;20136;-89
2023/01/29 03:12:32;;;;;;;18.30;13.05;;;4.50;99.90;;;;;;4691635;30;20046;-89
2023/01/29 03:15:11;;;;;;;21.35;14.20;;;4.50;99.90;;;;;;4685016;30;20046;-89
2023/01/29 03:18:02;;;;;;;18.83;13.50;;;4.50;99.90;;;;;;4654939;30;20074;-89
2023/01/29 03:20:32;;;;;;;20.83;13.82;;;4.50;99.90;;;;;;4659398;30;20061;-88
2023/01/29 03:23:09;;;;;;;17.98;12.80;;;4.50;99.90;;;;;;4684865;30;20050;-89
2023/01/29 03:34:22;;;;;;;19.90;14.00;;;4.50;99.90;;;;;;4668071;30;20132;-88
2023/01/29 03:36:56;;;;;;;23.43;14.07;;;4.50;99.90;;;;;;4668825;30;20057;-89
2023/01/29 03:39:27;;;;;;;21.73;14.70;;;4.50;99.90;;;;;;4684032;30;20415;-88
2023/01/29 03:42:04;;;;;;;19.83;14.68;;;4.50;99.90;;;;;;4687267;30;20144;-88
2023/01/29 03:44:32;;;;;;;18.98;14.02;;;4.50;99.90;;;;;;4696618;30;20104;-88
2023/01/29 03:47:26;;;;;;;20.88;14.65;;;4.50;99.90;;;;;;4670223;30;20054;-88
2023/01/29 03:49:57;;;;;;;18.98;14.13;;;4.50;99.90;;;;;;4684104;30;20050;-88
2023/01/29 03:52:23;;;;;;;21.15;14.32;;;4.50;99.90;;;;;;4668164;30;20567;-88
2023/01/29 03:55:05;;;;;;;16.60;12.88;;;4.50;99.90;;;;;;4668283;30;20146;-88
2023/01/29 03:57:49;;;;;;;23.67;14.70;;;4.50;99.90;;;;;;4684032;30;20042;-88
2023/01/29 04:00:33;;;;;;;18.35;13.38;;;4.50;99.90;;;;;;4684022;30;20057;-88
2023/01/29 04:03:32;;;;;;;18.63;13.73;;;4.50;99.90;;;;;;4669161;30;20061;-88
2023/01/29 04:06:17;;;;;;;20.27;13.23;;;4.50;99.90;;;;;;4683810;30;20723;-88
2023/01/29 04:08:54;;;;;;;20.50;14.50;;;4.50;99.90;;;;;;4669324;30;20075;-89
2023/01/29 04:11:21;;;;;;;19.98;14.60;;;4.50;99.90;;;;;;4683726;30;20053;-88
2023/01/29 04:13:48;;;;;;;20.13;14.95;;;4.50;99.90;;;;;;4664877;30;20058;-88
2023/01/29 04:16:39;;;;;;;18.98;14.70;;;4.50;99.90;;;;;;4695722;30;20050;-89
2023/01/29 04:19:05;;;;;;;21.23;15.20;;;4.50;99.90;;;;;;4668564;30;20058;-88
2023/01/29 04:21:31;;;;;;;19.65;13.52;;;4.50;99.90;;;;;;4668279;30;20053;-89
2023/01/29 04:23:57;;;;;;;20.15;15.18;;;4.50;99.90;;;;;;4666981;30;20504;-89
2023/01/29 04:26:31;;;;;;;20.23;14.98;;;4.50;99.90;;;;;;4668349;30;20060;-88
2023/01/29 04:29:00;;;;;;;17.95;14.20;;;4.50;99.90;;;;;;4669173;30;20069;-88
2023/01/29 04:31:36;;;;;;;23.05;16.30;;;4.50;99.90;;;;;;4667160;30;20140;-88
2023/01/29 04:34:27;;;;;;;23.60;16.38;;;4.50;99.90;;;;;;4731983;24;20054;-89
2023/01/29 04:37:32;;;;;;;25.23;15.75;;;4.50;99.90;;;;;;4682923;30;20172;-88
2023/01/29 04:40:38;;;;;;;27.40;16.48;;;4.50;99.90;;;;;;4681430;30;20124;-89
2023/01/29 04:43:40;;;;;;;22.42;15.15;;;4.50;99.90;;;;;;4662803;30;20054;-88
2023/01/29 04:46:27;;;;;;;22.30;16.20;;;4.50;99.90;;;;;;4650813;30;20109;-89
2023/01/29 04:49:14;;;;;;;21.52;15.55;;;4.50;99.90;;;;;;4653693;30;20518;-89
2023/01/29 04:52:06;;;;;;;23.30;16.42;;;4.50;99.90;;;;;;4666455;30;20057;-88
2023/01/29 04:54:57;;;;;;;25.48;15.68;;;4.50;99.90;;;;;;4652910;30;20062;-89
2023/01/29 04:57:53;;;;;;;21.70;15.50;;;4.50;99.90;;;;;;4667493;30;20069;-89
2023/01/29 05:00:28;;;;;;;21.92;14.63;;;4.50;99.90;;;;;;4682922;30;20128;-89
2023/01/29 05:02:55;;;;;;;23.67;16.63;;;4.50;99.90;;;;;;4665392;30;20559;-88
2023/01/29 05:05:24;;;;;;;22.45;16.45;;;4.50;99.90;;;;;;4649915;30;20050;-87
2023/01/29 05:07:59;;;;;;;23.02;17.25;;;4.50;99.90;;;;;;4663830;30;20397;-88
2023/01/29 05:10:32;;;;;;;21.35;16.30;;;4.50;99.90;;;;;;4656270;30;20046;-88
2023/01/29 05:13:12;;;;;;;23.25;16.88;;;4.50;99.90;;;;;;4666082;30;20133;-88
2023/01/29 05:15:51;;;;;;;26.42;17.92;;;4.50;99.90;;;;;;4682672;30;20069;-88
2023/01/29 05:18:17;;;;;;;24.10;16.92;;;4.50;99.90;;;;;;4664790;30;20088;-88
2023/01/29 05:20:47;;;;;;;25.05;18.02;;;4.50;99.90;;;;;;4664282;30;20439;-88
2023/01/29 05:23:18;;;;;;;24.65;17.23;;;4.50;99.90;;;;;;4679768;30;20054;-87
2023/01/29 05:25:49;;;;;;;26.20;18.60;;;4.50;99.90;;;;;;4659184;30;20077;-88
2023/01/29 05:28:21;;;;;;;24.45;17.83;;;4.50;99.90;;;;;;4659673;30;20053;-88
2023/01/29 05:31:13;;;;;;;22.35;16.38;;;4.50;99.90;;;;;;4667560;30;20049;-88
2023/01/29 05:34:06;;;;;;;24.95;18.35;;;4.50;99.90;;;;;;4654885;30;20054;-89
2023/01/29 05:36:34;;;;;;;25.27;18.48;;;4.50;99.90;;;;;;4676026;30;20067;-88
2023/01/29 05:39:06;;;;;;;24.20;17.33;;;4.50;99.90;;;;;;4655762;30;20413;-88
2023/01/29 05:41:31;;;;;;;26.48;18.85;;;4.50;99.90;;;;;;4675541;25;20520;-88
2023/01/29 05:43:57;;;;;;;25.92;18.65;;;4.50;99.90;;;;;;4694752;30;20057;-88
2023/01/29 05:46:23;;;;;;;26.25;19.08;;;4.50;99.90;;;;;;4683955;30;20495;-88
2023/01/29 05:48:50;;;;;;;23.77;17.35;;;4.50;99.90;;;;;;4669985;30;20100;-88
2023/01/29 05:51:16;;;;;;;24.83;17.40;;;4.50;99.90;;;;;;4685707;30;20049;-88
2023/01/29 05:53:47;;;;;;;24.75;19.05;;;4.50;99.90;;;;;;4668214;30;20062;-89
2023/01/29 05:56:13;;;;;;;27.67;18.85;;;4.50;99.90;;;;;;4684110;30;20054;-89
2023/01/29 05:58:38;;;;;;;26.88;18.83;;;4.50;99.90;;;;;;4693873;24;20066;-88
2023/01/29 06:01:16;;;;;;;25.02;17.77;;;4.60;99.90;;;;;;4670893;30;20134;-89
2023/01/29 06:03:57;;;;;;;21.92;17.92;;;4.50;99.90;;;;;;4681733;30;20100;-88
2023/01/29 06:06:38;;;;;;;26.85;20.60;;;4.50;99.90;;;;;;4666977;30;20523;-89
2023/01/29 06:09:16;;;;;;;27.13;19.58;;;4.50;99.90;;;;;;4672884;30;20112;-87
2023/01/29 06:11:48;;;;;;;25.60;20.42;;;4.50;99.90;;;;;;4684694;30;20054;-88
2023/01/29 06:14:26;;;;;;;28.02;20.38;;;4.50;99.90;;;;;;4675219;30;20058;-93
2023/01/29 06:16:59;;;;;;;28.83;20.13;;;4.50;99.90;;;;;;4673272;30;20050;-88
2023/01/29 06:19:24;;;;;;;25.85;19.20;;;4.50;99.90;;;;;;4711054;24;20054;-87
2023/01/29 06:26:25;;;;;;;23.83;18.70;;;4.50;99.90;;;;;;4667103;30;20132;-88
2023/01/29 06:28:51;;;;;;;25.92;19.13;;;4.50;99.90;;;;;;4671197;30;20172;-88
2023/01/29 06:31:23;;;;;;;25.23;19.42;;;4.50;99.90;;;;;;4673968;25;20162;-88
2023/01/29 06:33:55;;;;;;;24.17;18.67;;;4.50;99.90;;;;;;4648154;30;20110;-89
2023/01/29 06:36:21;;;;;;;24.88;19.42;;;4.50;99.90;;;;;;4652253;30;20051;-89
2023/01/29 06:38:55;;;;;;;25.23;19.30;;;4.50;99.90;;;;;;4650862;30;20054;-88
2023/01/29 06:41:24;;;;;;;24.85;19.50;;;4.50;99.90;;;;;;4650764;30;20404;-89
2023/01/29 06:43:56;;;;;;;25.55;19.63;;;4.50;99.90;;;;;;4658912;30;20105;-88
2023/01/29 06:46:31;;;;;;;25.23;19.30;;;4.50;99.90;;;;;;4665124;30;20051;-88
2023/01/29 06:49:03;;;;;;;24.98;19.17;;;4.50;99.90;;;;;;4661717;30;20110;-89
2023/01/29 06:51:31;;;;;;;24.55;19.45;;;4.50;99.90;;;;;;4654362;30;20047;-89
2023/01/29 06:54:12;;;;;;;24.75;20.30;;;4.50;99.90;;;;;;4663229;30;20050;-89
2023/01/29 06:56:55;;;;;;;25.83;20.33;;;4.50;99.90;;;;;;4648230;30;20047;-89
2023/01/29 06:59:26;;;;;;;26.65;19.98;;;4.50;99.90;;;;;;4651137;30;20062;-91
2023/01/29 07:01:57;;;;;;;25.95;20.45;;;4.50;99.90;;;;;;4656238;24;20070;-88
2023/01/29 07:04:32;;;;;;;27.40;21.42;;;4.50;99.90;;;;;;4657881;30;20054;-88
2023/01/29 07:06:58;;;;;;;27.63;21.58;;;4.40;99.90;;;;;;4639957;30;20130;-89
2023/01/29 07:09:24;;;;;;;29.35;22.13;;;4.50;99.90;;;;;;4650644;30;20525;-88
2023/01/29 07:11:55;;;;;;;28.38;21.60;;;4.50;99.90;;;;;;4651623;30;20141;-88
2023/01/29 07:14:24;;;;;;;28.88;22.17;;;4.50;99.90;;;;;;4657005;30;20129;-88
2023/01/29 07:16:49;;;;;;;28.38;22.35;;;4.50;99.90;;;;;;4667965;30;20185;-88
2023/01/29 07:19:46;;;;;;;28.08;21.45;;;4.50;99.90;;;;;;4659175;30;20146;-87
2023/01/29 07:24:52;;;;;;;30.50;22.30;;;4.50;99.90;;;;;;4716011;24;20069;-91
2023/01/29 07:27:32;;;;;;;29.55;21.20;;;4.50;99.90;;;;;;4652026;30;20149;-90
2023/01/29 07:36:53;;;;;;;30.25;22.15;;;4.50;99.90;;;;;;4766645;25;20054;-90
2023/01/29 07:42:29;;;;;;;31.13;23.25;;;4.50;99.90;;;;;;4656723;25;20110;-91
2023/01/29 07:47:41;;;;;;;;;;;;;;;;;;;;;
2023/01/29 07:51:24;;;;;;;29.30;22.83;;;4.50;99.90;;;;;;4672332;30;20057;-91
2023/01/29 07:56:32;;;;;;;30.35;22.33;;;4.40;99.90;;;;;;4681394;25;20057;-92
2023/01/29 07:59:20;;;;;;;30.50;21.80;;;4.40;99.90;;;;;;4654146;30;20073;-90
2023/01/29 08:02:01;;;;;;;29.73;21.45;;;4.40;99.90;;;;;;4673978;30;20656;-90
2023/01/29 08:04:26;;;;;;;31.33;22.95;;;4.40;99.90;;;;;;4652107;30;20472;-90
2023/01/29 08:07:05;;;;;;;31.10;22.60;;;4.40;99.90;;;;;;4654000;30;20049;-90
2023/01/29 08:09:39;;;;;;;32.08;23.30;;;4.40;99.90;;;;;;4683462;30;20085;-89
2023/01/29 08:12:05;;;;;;;30.15;23.25;;;4.40;99.90;;;;;;4672292;30;20496;-89
2023/01/29 08:14:31;;;;;;;29.90;23.10;;;4.40;99.90;;;;;;4656249;30;20050;-89
2023/01/29 08:17:15;;;;;;;31.27;22.95;;;4.40;99.90;;;;;;4651637;30;20091;-90
2023/01/29 08:19:41;;;;;;;32.70;23.63;;;4.40;99.90;;;;;;4651295;30;20054;-88
2023/01/29 08:22:06;;;;;;;30.83;23.60;;;4.40;99.90;;;;;;4666106;30;20054;-89
2023/01/29 08:24:38;;;;;;;32.50;23.55;;;4.40;99.90;;;;;;4654545;30;20046;-90
2023/01/29 08:27:04;;;;;;;32.47;23.50;;;4.40;99.90;;;;;;4683190;30;20081;-92
2023/01/29 08:29:41;;;;;;;36.33;24.70;;;4.40;99.90;;;;;;4667786;30;20133;-90
2023/01/29 08:32:32;;;;;;;32.58;23.85;;;4.40;99.90;;;;;;4683307;30;20137;-89
2023/01/29 08:35:12;;;;;;;32.53;24.17;;;4.40;99.90;;;;;;4638287;30;20185;-90
2023/01/29 08:40:12;;;;;;;35.67;24.02;;;4.40;99.90;;;;;;4685428;25;20646;-89
2023/01/29 08:43:18;;;;;;;36.28;25.38;;;4.40;99.90;;;;;;4665451;30;20075;-88
2023/01/29 08:46:41;;;;;;;34.42;24.33;;;4.40;99.90;;;;;;4926693;25;20044;-92
2023/01/29 08:49:35;;;;;;;34.60;24.90;;;4.40;99.90;;;;;;4627999;31;20122;-91
2023/01/29 08:52:07;;;;;;;36.10;25.25;;;4.40;99.90;;;;;;4631220;30;20505;-90
2023/01/29 08:54:36;;;;;;;35.92;26.10;;;4.50;99.90;;;;;;4648111;30;20061;-91
2023/01/29 08:57:09;;;;;;;37.03;26.33;;;4.50;99.90;;;;;;4634186;30;20055;-90
2023/01/29 08:59:35;;;;;;;;;;;4.50;99.90;;;;;;4634123;30;20054;-91
2023/01/29 09:02:01;;;;;;;37.13;26.02;;;4.50;99.90;;;;;;4691579;24;19927;-90
2023/01/29 09:04:33;;;;;;;37.67;26.10;;;4.40;99.90;;;;;;4691634;30;20156;-91
2023/01/29 09:06:59;;;;;;;38.50;25.40;;;4.50;99.90;;;;;;4677208;30;20049;-90
2023/01/29 09:09:27;;;;;;;38.05;26.05;;;4.50;99.90;;;;;;4670452;30;20050;-90
2023/01/29 09:11:53;;;;;;;40.30;26.58;;;4.60;99.90;;;;;;4680632;30;20523;-92
2023/01/29 09:14:19;;;;;;;40.88;26.85;;;4.60;99.90;;;;;;4678042;30;20053;-92
2023/01/29 09:17:15;;;;;;;35.75;25.55;;;4.50;99.90;;;;;;4676584;30;20377;-95
2023/01/29 09:19:54;;;;;;;39.67;27.15;;;4.60;99.90;;;;;;4654891;30;20084;-90
2023/01/29 09:22:26;;;;;;;39.80;26.10;;;4.60;99.90;;;;;;4676401;30;20515;-92
2023/01/29 09:24:54;;;;;;;34.92;26.10;;;4.60;99.90;;;;;;4698388;30;20064;-90
2023/01/29 09:27:26;;;;;;;37.83;26.52;;;4.70;99.90;;;;;;4679802;30;20096;-89
2023/01/29 09:29:52;;;;;;;39.55;26.67;;;4.70;99.90;;;;;;4672260;30;20057;-91
2023/01/29 09:32:17;;;;;;;39.58;26.90;;;4.60;99.90;;;;;;4682036;30;20057;-90
2023/01/29 09:34:43;;;;;;;35.35;25.70;;;4.70;99.90;;;;;;4676568;30;20057;-89
2023/01/29 09:37:11;;;;;;;38.90;27.25;;;4.70;99.90;;;;;;4684593;30;20061;-90
2023/01/29 09:39:38;;;;;;;37.75;26.13;;;4.70;99.90;;;;;;4645982;24;20067;-90
2023/01/29 09:42:31;;;;;;;40.08;27.40;;;4.70;99.90;;;;;;4737818;24;20073;-90
2023/01/29 09:45:28;;;;;;;39.78;25.50;;;4.70;99.90;;;;;;4667843;30;20068;-91
2023/01/29 09:48:02;;;;;;;38.10;27.23;;;4.70;99.90;;;;;;4667037;30;20064;-90
2023/01/29 09:50:50;;;;;;;40.35;27.98;;;4.70;99.90;;;;;;4667689;30;20451;-91
2023/01/29 09:53:35;;;;;;;35.03;25.73;;;4.80;99.90;;;;;;4682247;30;20050;-91
2023/01/29 09:56:11;;;;;;;43.72;28.98;;;4.80;99.90;;;;;;4668058;30;20054;-91
2023/01/29 09:58:42;;;;;;;44.30;28.55;;;4.80;99.90;;;;;;4667583;30;20109;-91
2023/01/29 10:01:17;;;;;;;39.33;27.95;;;4.80;99.90;;;;;;4667072;30;20507;-91
2023/01/29 10:04:12;;;;;;;37.53;25.83;;;4.80;99.90;;;;;;4684498;30;20495;-91
2023/01/29 10:06:47;;;;;;;38.72;26.63;;;4.80;99.90;;;;;;4671244;30;20064;-90
2023/01/29 10:09:32;;;;;;;37.03;26.95;;;4.80;99.90;;;;;;4686247;30;20056;-91
2023/01/29 10:12:20;;;;;;;41.03;27.65;;;4.90;99.90;;;;;;4686340;30;20097;-91
2023/01/29 10:15:04;;;;;;;40.10;27.25;;;4.90;99.90;;;;;;4670745;30;20062;-91
2023/01/29 10:17:38;;;;;;;37.65;26.02;;;4.90;99.90;;;;;;4686294;30;20455;-90
2023/01/29 10:20:25;;;;;;;42.08;27.42;;;4.90;99.90;;;;;;4671044;30;20085;-91
2023/01/29 10:23:00;;;;;;;38.10;26.73;;;4.90;99.90;;;;;;4685990;30;20086;-91
2023/01/29 10:25:26;;;;;;;41.13;26.80;;;5.00;99.90;;;;;;4670994;30;20050;-92
2023/01/29 10:31:18;;;;;;;36.15;25.88;;;5.00;99.90;;;;;;4678970;24;20054;-94
2023/01/29 10:37:23;;;;;;;37.85;26.67;;;5.00;99.90;;;;;;4683238;25;20521;-91
2023/01/29 10:39:50;;;;;;;35.28;24.98;;;5.00;99.90;;;;;;4634775;25;20049;-92
2023/01/29 10:43:01;;;;;;;36.80;26.67;;;5.00;99.90;;;;;;4694076;30;20061;-92
2023/01/29 10:45:39;;;;;;;38.50;26.95;;;5.00;99.90;;;;;;4699402;30;20052;-92
2023/01/29 10:48:32;;;;;;;37.13;26.40;;;5.00;99.90;;;;;;4692085;30;20060;-92
2023/01/29 10:51:32;;;;;;;40.65;27.13;;;5.00;99.90;;;;;;4673908;30;20057;-92
2023/01/29 10:54:22;;;;;;;38.65;27.67;;;5.10;99.90;;;;;;4685765;30;20128;-91
2023/01/29 10:57:28;;;;;;;38.50;27.05;;;5.10;99.90;;;;;;4673359;30;20054;-92
2023/01/29 11:00:17;;;;;;;43.78;29.70;;;5.10;99.90;;;;;;4693422;30;20053;-91
2023/01/29 11:02:56;;;;;;;40.08;28.45;;;5.00;99.90;;;;;;4700846;30;20052;-92
2023/01/29 11:06:32;;;;;;;39.80;28.02;;;5.10;99.90;;;;;;4633394;30;20126;-93
2023/01/29 11:09:34;;;;;;;40.67;28.27;;;5.10;99.90;;;;;;4688644;30;20053;-92
2023/01/29 11:15:51;;;;;;;38.05;27.23;;;5.10;99.90;;;;;;4601961;31;20105;-96
2023/01/29 11:19:02;;;;;;;43.00;28.20;;;5.10;99.90;;;;;;4606999;31;20063;-92
2023/01/29 11:22:00;;;;;;;43.45;28.42;;;5.10;99.90;;;;;;4601962;31;20068;-93
2023/01/29 11:24:30;;;;;;;38.83;27.00;;;5.10;99.90;;;;;;4605478;31;20070;-93
2023/01/29 11:26:58;;;;;;;41.42;29.23;;;5.20;99.90;;;;;;4635703;30;20058;-93
2023/01/29 11:29:58;;;;;;;39.90;28.00;;;5.20;99.90;;;;;;4671700;30;20138;-93
2023/01/29 11:33:11;;;;;;;41.33;28.67;;;5.20;99.90;;;;;;4680675;30;20097;-93
2023/01/29 11:35:37;;;;;;;41.65;29.15;;;5.20;99.90;;;;;;4877479;25;20069;-93
2023/01/29 11:38:35;;;;;;;38.97;27.60;;;5.20;99.90;;;;;;4703476;30;20073;-93
2023/01/29 11:41:28;;;;;;;40.17;28.90;;;5.20;99.90;;;;;;4669351;30;20082;-92
2023/01/29 11:43:58;;;;;;;40.00;29.00;;;5.20;99.90;;;;;;4658632;30;20066;-92
2023/01/29 11:46:52;;;;;;;39.08;27.35;;;5.30;99.90;;;;;;4654407;30;20508;-94
2023/01/29 11:50:08;;;;;;;38.88;27.88;;;5.30;99.90;;;;;;4664543;30;20058;-94
2023/01/29 11:55:25;;;;;;;35.88;26.27;;;5.30;99.90;;;;;;4974663;25;20128;-92
2023/01/29 11:58:23;;;;;;;35.47;26.48;;;5.30;99.90;;;;;;4694447;30;20061;-91
2023/01/29 12:00:58;;;;;;;37.88;26.75;;;5.40;99.90;;;;;;4674392;30;20515;-91
2023/01/29 12:03:43;;;;;;;37.90;26.50;;;5.40;99.90;;;;;;4667753;30;20089;-92
2023/01/29 12:06:37;;;;;;;39.40;26.60;;;5.30;99.90;;;;;;4657985;30;20503;-91
2023/01/29 12:09:10;;;;;;;39.58;26.55;;;5.40;99.90;;;;;;4675050;30;20579;-92
2023/01/29 12:11:38;;;;;;;37.45;25.92;;;5.40;99.90;;;;;;4701917;30;20462;-91
2023/01/29 12:14:25;;;;;;;35.72;25.58;;;5.40;99.90;;;;;;4687202;30;20052;-91
2023/01/29 12:16:57;;;;;;;39.58;26.63;;;5.40;99.90;;;;;;4702812;30;20503;-91
2023/01/29 12:19:52;;;;;;;37.42;25.55;;;5.40;99.90;;;;;;4702976;30;20046;-92
2023/01/29 12:22:49;;;;;;;36.50;25.67;;;5.40;99.90;;;;;;4670228;30;20053;-91
2023/01/29 12:25:37;;;;;;;38.00;26.98;;;5.50;99.90;;;;;;4688023;30;20057;-91
2023/01/29 12:28:22;;;;;;;33.78;24.02;;;5.50;99.90;;;;;;4706692;25;20082;-92
2023/01/29 12:31:20;;;;;;;37.20;24.58;;;5.50;99.90;;;;;;4718891;30;20041;-90
2023/01/29 12:34:06;;;;;;;35.70;24.75;;;5.50;99.90;;;;;;4720148;30;20053;-92
2023/01/29 12:37:17;;;;;;;40.00;26.00;;;5.50;99.90;;;;;;4719278;30;20041;-92
2023/01/29 12:39:42;;;;;;;38.38;25.65;;;5.50;99.90;;;;;;4702064;30;20107;-91
2023/01/29 12:42:19;;;;;;;32.95;24.90;;;5.50;99.90;;;;;;4719339;30;20430;-91
2023/01/29 12:45:19;;;;;;;32.55;24.63;;;5.50;99.90;;;;;;4697492;24;20050;-93
2023/01/29 12:48:18;;;;;;;31.50;24.20;;;5.50;99.90;;;;;;4684932;30;20135;-91
2023/01/29 12:50:50;;;;;;;32.92;23.48;;;5.50;99.90;;;;;;4693813;30;20111;-91
2023/01/29 12:53:43;;;;;;;36.63;24.88;;;5.50;99.90;;;;;;4695239;30;20094;-92
2023/01/29 12:56:36;;;;;;;34.47;25.23;;;5.50;99.90;;;;;;4685104;30;20057;-91
2023/01/29 12:59:31;;;;;;;33.80;25.05;;;5.50;99.90;;;;;;4700696;30;20057;-91
2023/01/29 13:05:34;;;;;;;34.70;24.83;;;5.50;99.90;;;;;;4682206;30;20159;-92
2023/01/29 13:08:17;;;;;;;36.40;25.17;;;5.50;99.90;;;;;;4709261;30;20064;-90
2023/01/29 13:10:48;;;;;;;38.22;26.45;;;5.50;99.90;;;;;;4719105;30;20512;-94
2023/01/29 13:13:32;;;;;;;36.95;24.92;;;5.50;99.90;;;;;;4691186;30;20500;-94
2023/01/29 13:16:02;;;;;;;32.67;24.55;;;5.50;99.90;;;;;;4686641;30;20140;-95
2023/01/29 13:18:44;;;;;;;34.67;24.23;;;5.50;99.90;;;;;;4701446;30;20463;-94
2023/01/29 13:21:20;;;;;;;32.70;25.05;;;5.50;99.90;;;;;;4700904;30;20053;-91
2023/01/29 13:23:50;;;;;;;33.83;25.10;;;5.50;99.90;;;;;;4701159;30;20055;-91
2023/01/29 13:26:20;;;;;;;35.45;26.05;;;5.50;99.90;;;;;;4696930;30;20068;-93
2023/01/29 13:28:47;;;;;;;35.25;25.30;;;5.50;99.90;;;;;;4714605;30;20394;-96
2023/01/29 13:31:21;;;;;;;34.63;24.23;;;5.50;99.90;;;;;;4720018;30;20057;-94
2023/01/29 13:34:14;;;;;;;34.35;25.48;;;5.40;99.90;;;;;;4707324;30;20084;-93
2023/01/29 13:36:51;;;;;;;36.15;25.50;;;5.40;99.90;;;;;;4715961;30;20384;-89
2023/01/29 13:39:29;;;;;;;36.05;26.13;;;5.40;99.90;;;;;;4676083;30;20070;-88
2023/01/29 13:41:57;;;;;;;35.65;24.98;;;5.50;99.90;;;;;;4684533;30;20564;-88
2023/01/29 13:44:34;;;;;;;37.80;25.75;;;5.50;99.90;;;;;;4716210;24;20994;-88
2023/01/29 13:48:16;;;;;;;35.22;25.90;;;5.40;99.90;;;;;;4672469;30;20113;-89
2023/01/29 13:51:18;;;;;;;;;;;;;;;;;;;;;
2023/01/29 13:58:45;;;;;;;34.83;24.70;;;5.40;99.90;;;;;;4710810;25;20054;-89
2023/01/29 14:01:19;;;;;;;36.40;25.80;;;5.40;99.90;;;;;;4709835;24;20585;-89
2023/01/29 14:07:52;;;;;;;35.58;25.52;;;5.30;99.90;;;;;;4681828;30;20415;-90
2023/01/29 14:10:38;;;;;;;33.03;25.02;;;5.40;99.90;;;;;;4667232;30;20069;-89
2023/01/29 14:13:03;;;;;;;35.42;26.00;;;5.40;99.90;;;;;;4671816;25;20084;-88
2023/01/29 14:15:55;;;;;;;36.47;25.58;;;5.40;99.90;;;;;;4682621;30;20104;-89
2023/01/29 14:18:23;;;;;;;34.60;25.98;;;5.40;99.90;;;;;;4681353;30;20072;-88
2023/01/29 14:21:36;;;;;;;33.60;26.02;;;5.30;99.90;;;;;;4663323;30;20493;-88
2023/01/29 14:24:29;;;;;;;35.88;25.65;;;5.30;99.90;;;;;;4666588;30;20050;-88
2023/01/29 14:29:45;;;;;;;37.28;27.02;;;5.30;99.90;;;;;;4747648;24;20060;-89
2023/01/29 14:32:39;;;;;;;33.50;24.85;;;5.30;99.90;;;;;;4666766;30;20090;-88
2023/01/29 14:35:36;;;;;;;38.53;26.77;;;5.30;99.90;;;;;;4666512;30;20115;-88
2023/01/29 14:38:05;;;;;;;39.05;27.60;;;5.30;99.90;;;;;;4663487;30;20063;-92
2023/01/29 14:46:53;;;;;;;36.20;26.50;;;5.20;99.90;;;;;;4685178;24;20058;-90
2023/01/29 14:49:51;;;;;;;39.53;27.88;;;5.30;99.90;;;;;;4666541;30;20057;-91
2023/01/29 14:52:31;;;;;;;35.88;26.63;;;5.20;99.90;;;;;;4691876;30;20050;-92
2023/01/29 14:55:01;;;;;;;38.78;27.52;;;5.20;99.90;;;;;;4670098;30;20088;-92
2023/01/29 14:57:29;;;;;;;43.17;30.25;;;5.20;99.90;;;;;;4684965;30;20072;-91
2023/01/29 15:00:12;;;;;;;41.35;28.40;;;5.30;99.90;;;;;;4685590;30;20061;-92
2023/01/29 15:02:40;;;;;;;42.33;29.52;;;5.20;99.90;;;;;;4665396;30;20062;-92
2023/01/29 15:05:29;;;;;;;39.65;29.55;;;5.20;99.90;;;;;;4685880;30;20042;-91
2023/01/29 15:08:00;;;;;;;44.25;30.00;;;5.20;99.90;;;;;;4669984;30;20807;-92